KHHF

Hemphill County Airport

Canadian, Texas, USA
METAR KHHF 161535Z AUTO 00000KT 10SM CLR 04/02 A3014 RMK AO2 T00390019
Observed Flight Rules
Nov-16 @ 15:35 UTC (29 minutes ago) Visual Flight Rules
Visibility Clouds
10 miles
  • Clear skies
Temperatures Readings
Current 4°C / 39°F
Dewpoint 2°C / 36°F
Humidity 87%
Altimeter 30.14" Hg
Pressure 1021 hPa
Elevation 712
METAR KHHF 161535Z AUTO 00000KT 10SM CLR 04/02 A3014 RMK AO2 T00390019
Observed Flight Rules
Nov-16 @ 15:35 UTC
(29 minutes ago)
VFR
Clouds
  • Clear skies
Temperature Dewpoint
4°C / 39°F 2°C / 36°F
Humidity Altimeter Pressure
87% 30.14" Hg 1021 hPa